createdAt,value
2023-06-20T00:01:18.332Z,3.00
2023-06-20T00:03:46.910Z,3.08
2023-06-20T00:06:13.968Z,3.10
2023-06-20T00:08:41.046Z,2.35
2023-06-20T00:11:08.125Z,2.75
2023-06-20T00:13:35.504Z,2.95
2023-06-20T00:16:02.483Z,2.97
2023-06-20T00:18:30.671Z,2.88
2023-06-20T00:20:59.234Z,2.80
2023-06-20T00:23:26.291Z,2.60
2023-06-20T00:25:53.456Z,2.72
2023-06-20T00:28:20.424Z,2.88
2023-06-20T00:30:47.490Z,3.00
2023-06-20T00:33:15.112Z,3.17
2023-06-20T00:35:42.231Z,2.88
2023-06-20T00:38:10.632Z,2.85
2023-06-20T00:40:37.672Z,2.90
2023-06-20T00:43:05.200Z,2.42
2023-06-20T00:45:36.477Z,3.03
2023-06-20T00:48:06.615Z,2.60
2023-06-20T00:50:34.476Z,2.58
2023-06-20T00:53:02.890Z,2.20
2023-06-20T00:55:32.786Z,2.67
2023-06-20T00:58:00.652Z,2.72
2023-06-20T01:00:34.185Z,2.40
2023-06-20T01:03:05.478Z,2.50
2023-06-20T01:05:32.926Z,3.08
2023-06-20T01:08:09.764Z,3.00
2023-06-20T01:10:48.991Z,3.10
2023-06-20T01:13:24.256Z,2.95
2023-06-20T01:16:00.305Z,2.60
2023-06-20T01:18:37.904Z,3.00
2023-06-20T01:21:09.123Z,2.30
2023-06-20T01:23:42.812Z,2.30
2023-06-20T01:26:12.870Z,3.33
2023-06-20T01:28:43.025Z,2.40
2023-06-20T01:31:12.846Z,2.60
2023-06-20T01:33:48.919Z,2.10
2023-06-20T01:36:19.523Z,2.75
2023-06-20T01:38:51.057Z,2.50
2023-06-20T01:41:22.393Z,2.47
2023-06-20T01:43:56.406Z,2.42
2023-06-20T01:46:25.449Z,2.70
2023-06-20T01:48:54.281Z,2.20
2023-06-20T01:51:22.265Z,2.80
2023-06-20T01:53:51.570Z,2.47
2023-06-20T01:56:20.048Z,2.88
2023-06-20T01:58:48.669Z,2.45
2023-06-20T02:01:17.523Z,3.17
2023-06-20T02:03:45.884Z,2.47
2023-06-20T02:06:14.738Z,2.58
2023-06-20T02:08:41.885Z,2.20
2023-06-20T02:11:10.701Z,2.40
2023-06-20T02:13:38.085Z,2.45
2023-06-20T02:16:08.866Z,2.13
2023-06-20T02:18:38.163Z,2.30
2023-06-20T02:21:07.638Z,2.65
2023-06-20T02:23:36.410Z,2.85
2023-06-20T02:26:09.589Z,3.25
2023-06-20T02:28:41.946Z,2.20
2023-06-20T02:31:13.836Z,2.60
2023-06-20T02:33:43.129Z,2.92
2023-06-20T02:36:11.261Z,3.88
2023-06-20T02:38:38.505Z,3.50
2023-06-20T02:41:06.313Z,2.72
2023-06-20T02:43:33.336Z,2.50
2023-06-20T02:46:09.751Z,2.30
2023-06-20T02:48:43.265Z,2.10
2023-06-20T02:51:16.887Z,2.05
2023-06-20T02:53:51.670Z,1.98
2023-06-20T02:56:19.190Z,2.25
2023-06-20T02:58:53.376Z,2.70
2023-06-20T03:01:25.090Z,2.93
2023-06-20T03:03:56.875Z,2.85
2023-06-20T03:06:30.797Z,3.17
2023-06-20T03:09:01.606Z,2.80
2023-06-20T03:11:30.220Z,2.72
2023-06-20T03:14:00.324Z,3.13
2023-06-20T03:16:29.182Z,2.83
2023-06-20T03:18:56.931Z,3.10
2023-06-20T03:21:29.429Z,3.00
2023-06-20T03:24:00.625Z,2.80
2023-06-20T03:26:27.758Z,3.03
2023-06-20T03:28:54.917Z,3.10
2023-06-20T03:31:24.949Z,2.75
2023-06-20T03:33:53.482Z,3.03
2023-06-20T03:36:21.056Z,3.58
2023-06-20T03:38:48.786Z,3.60
2023-06-20T03:41:18.823Z,3.40
2023-06-20T03:43:48.742Z,4.07
2023-06-20T03:46:16.546Z,3.65
2023-06-20T03:48:43.558Z,4.38
2023-06-20T03:51:12.034Z,3.88
2023-06-20T03:53:39.012Z,4.22
2023-06-20T03:56:06.042Z,3.78
2023-06-20T03:58:34.583Z,4.20
2023-06-20T04:01:01.646Z,4.00
2023-06-20T04:03:30.264Z,4.13
2023-06-20T04:06:02.253Z,4.35
2023-06-20T04:08:31.264Z,5.07
2023-06-20T04:11:00.726Z,4.80
2023-06-20T04:13:28.290Z,5.75
2023-06-20T04:15:55.514Z,5.88
2023-06-20T04:18:22.524Z,5.38
2023-06-20T04:20:50.018Z,5.45
2023-06-20T04:23:17.023Z,5.47
2023-06-20T04:25:46.609Z,6.07
2023-06-20T04:28:13.622Z,5.60
2023-06-20T04:30:52.073Z,5.30
2023-06-20T04:33:20.375Z,5.82
2023-06-20T04:35:47.870Z,4.97
2023-06-20T04:38:16.211Z,5.30
2023-06-20T04:40:44.125Z,5.07
2023-06-20T04:43:12.471Z,5.32
2023-06-20T04:45:39.752Z,4.40
2023-06-20T04:48:07.079Z,4.90
2023-06-20T04:50:34.821Z,5.63
2023-06-20T04:53:02.327Z,5.47
2023-06-20T04:55:29.324Z,5.00
2023-06-20T04:57:57.916Z,5.40
2023-06-20T05:00:28.527Z,4.93
2023-06-20T05:03:00.082Z,5.03
2023-06-20T05:05:30.586Z,5.65
2023-06-20T05:07:58.035Z,5.65
2023-06-20T05:10:25.775Z,5.47
2023-06-20T05:12:52.959Z,5.60
2023-06-20T05:15:24.855Z,4.88
2023-06-20T05:17:56.423Z,5.10
2023-06-20T05:20:23.669Z,4.93
2023-06-20T05:22:51.247Z,5.85
2023-06-20T05:25:18.476Z,5.47
2023-06-20T05:27:45.634Z,5.97
2023-06-20T05:30:15.605Z,5.43
2023-06-20T05:32:44.754Z,5.35
2023-06-20T05:35:13.592Z,5.90
2023-06-20T05:37:40.911Z,6.10
2023-06-20T05:40:08.983Z,5.97
2023-06-20T05:42:35.965Z,5.75
2023-06-20T05:45:03.258Z,6.50
2023-06-20T05:47:30.439Z,7.93
2023-06-20T05:49:58.686Z,8.07
2023-06-20T05:52:27.390Z,7.85
2023-06-20T05:54:55.118Z,7.97
2023-06-20T05:57:22.350Z,8.52
2023-06-20T05:59:49.325Z,8.20
2023-06-20T06:02:17.176Z,7.63
2023-06-20T06:04:46.038Z,7.38
2023-06-20T06:07:13.281Z,8.43
2023-06-20T06:09:41.873Z,7.32
2023-06-20T06:12:09.823Z,7.38
2023-06-20T06:14:36.839Z,7.20
2023-06-20T06:17:04.199Z,7.35
2023-06-20T06:19:31.292Z,7.75
2023-06-20T06:22:01.087Z,6.50
2023-06-20T06:24:31.032Z,6.97
2023-06-20T06:26:59.472Z,6.80
2023-06-20T06:29:28.179Z,7.15
2023-06-20T06:31:56.953Z,7.35
2023-06-20T06:34:23.969Z,7.05
2023-06-20T06:36:51.322Z,6.90
2023-06-20T06:39:20.699Z,7.20
2023-06-20T06:41:50.581Z,7.43
2023-06-20T06:44:19.799Z,6.93
2023-06-20T06:46:49.231Z,6.43
2023-06-20T06:49:17.390Z,6.68
2023-06-20T06:51:44.455Z,6.60
2023-06-20T06:54:11.544Z,6.95
2023-06-20T06:56:38.599Z,7.32
2023-06-20T06:59:05.588Z,6.10
2023-06-20T07:01:34.436Z,7.00
2023-06-20T07:04:01.541Z,6.88
2023-06-20T07:06:31.252Z,7.22
2023-06-20T07:08:58.234Z,7.28
2023-06-20T07:11:25.684Z,7.35
2023-06-20T07:13:52.738Z,7.45
2023-06-20T07:16:19.757Z,6.22
2023-06-20T07:18:48.169Z,6.25
2023-06-20T07:21:15.798Z,5.88
2023-06-20T07:23:42.779Z,6.70
2023-06-20T07:26:10.074Z,6.60
2023-06-20T07:28:37.397Z,6.13
2023-06-20T07:31:07.283Z,6.45
2023-06-20T07:33:36.915Z,6.20
2023-06-20T07:36:08.395Z,6.50
2023-06-20T07:38:35.412Z,6.07
2023-06-20T07:41:02.430Z,6.47
2023-06-20T07:43:29.403Z,5.97
2023-06-20T07:45:56.453Z,5.30
2023-06-20T07:48:24.723Z,5.78
2023-06-20T07:50:51.821Z,5.85
2023-06-20T07:53:20.704Z,6.10
2023-06-20T07:55:47.709Z,6.40
2023-06-20T07:58:14.677Z,5.55
2023-06-20T08:00:41.987Z,6.13
2023-06-20T08:03:09.398Z,5.97
2023-06-20T08:05:36.535Z,6.00
2023-06-20T08:08:06.202Z,7.43
2023-06-20T08:10:35.122Z,7.53
2023-06-20T08:13:02.281Z,6.32
2023-06-20T08:15:29.333Z,5.93
2023-06-20T08:17:56.735Z,5.70
2023-06-20T08:20:23.771Z,6.30
2023-06-20T08:22:50.843Z,5.93
2023-06-20T08:25:17.806Z,5.78
2023-06-20T08:27:46.157Z,5.85
2023-06-20T08:30:13.847Z,5.30
2023-06-20T08:32:43.501Z,4.35
2023-06-20T08:35:12.920Z,4.47
2023-06-20T08:37:39.953Z,4.50
2023-06-20T08:40:10.270Z,4.35
2023-06-20T08:42:37.293Z,5.15
2023-06-20T08:45:07.060Z,5.22
2023-06-20T08:47:34.493Z,5.30
2023-06-20T08:50:01.754Z,5.32
2023-06-20T08:52:30.798Z,4.68
2023-06-20T08:54:58.415Z,5.60
2023-06-20T08:57:25.677Z,5.50
2023-06-20T08:59:54.694Z,5.57
2023-06-20T09:02:23.975Z,5.35
2023-06-20T09:05:02.355Z,5.88
2023-06-20T09:07:35.692Z,5.72
2023-06-20T09:10:03.080Z,5.65
2023-06-20T09:12:33.111Z,6.60
2023-06-20T09:15:00.200Z,6.50
2023-06-20T09:17:28.638Z,6.30
2023-06-20T09:19:58.386Z,6.68
2023-06-20T09:22:27.054Z,6.80
2023-06-20T09:24:54.040Z,5.32
2023-06-20T09:27:22.507Z,5.35
2023-06-20T09:29:51.250Z,5.95
2023-06-20T09:32:22.402Z,4.70
2023-06-20T09:34:51.708Z,5.38
2023-06-20T09:37:19.266Z,5.32
2023-06-20T09:39:49.196Z,5.72
2023-06-20T09:42:16.217Z,5.20
2023-06-20T09:44:43.304Z,5.25
2023-06-20T09:47:10.840Z,5.55
2023-06-20T09:49:41.264Z,5.53
2023-06-20T09:52:16.140Z,4.75
2023-06-20T09:54:47.200Z,4.88
2023-06-20T09:57:19.957Z,4.45
2023-06-20T09:59:51.077Z,4.30
2023-06-20T10:02:21.604Z,4.57
2023-06-20T10:04:49.356Z,4.47
2023-06-20T10:07:18.019Z,4.90
2023-06-20T10:09:46.872Z,5.10
2023-06-20T10:12:14.225Z,4.90
2023-06-20T10:14:42.314Z,4.93
2023-06-20T10:17:10.492Z,4.80
2023-06-20T10:19:47.663Z,4.82
2023-06-20T10:22:14.749Z,4.97
2023-06-20T10:24:43.314Z,4.70
2023-06-20T10:27:10.570Z,4.35
2023-06-20T10:29:42.188Z,4.68
2023-06-20T10:32:10.771Z,4.57
2023-06-20T10:34:39.749Z,4.63
2023-06-20T10:37:14.676Z,4.63
2023-06-20T10:39:53.435Z,4.15
2023-06-20T10:42:47.449Z,3.20
2023-06-20T10:45:23.592Z,3.40
2023-06-20T10:47:51.729Z,3.72
2023-06-20T10:50:19.350Z,3.80
2023-06-20T10:52:49.640Z,3.92
2023-06-20T10:55:23.598Z,4.22
2023-06-20T10:57:54.251Z,3.85
2023-06-20T11:00:23.333Z,3.38
2023-06-20T11:02:55.239Z,3.58
2023-06-20T11:05:26.228Z,3.78
2023-06-20T11:07:55.221Z,3.67
2023-06-20T11:10:28.825Z,3.58
2023-06-20T11:12:56.679Z,4.55
2023-06-20T11:15:26.647Z,3.50
2023-06-20T11:17:54.919Z,3.22
2023-06-20T11:20:23.761Z,3.72
2023-06-20T11:22:55.110Z,3.28
2023-06-20T11:25:29.517Z,3.30
2023-06-20T11:28:04.497Z,3.28
2023-06-20T11:30:33.107Z,3.42
2023-06-20T11:33:04.788Z,2.97
2023-06-20T11:35:46.666Z,3.20
2023-06-20T11:38:15.304Z,3.17
2023-06-20T11:40:45.217Z,3.10
2023-06-20T11:43:23.781Z,3.00
2023-06-20T11:45:51.223Z,3.20
2023-06-20T11:48:19.678Z,2.80
2023-06-20T11:50:55.588Z,3.10
2023-06-20T11:53:26.362Z,3.50
2023-06-20T11:55:56.812Z,4.10
2023-06-20T11:58:26.076Z,3.65
2023-06-20T12:01:01.916Z,3.78
2023-06-20T12:03:28.882Z,3.40
2023-06-20T12:05:58.142Z,3.40
2023-06-20T12:08:26.262Z,3.80
2023-06-20T12:11:03.103Z,2.90
2023-06-20T12:13:34.538Z,3.15
2023-06-20T12:16:02.574Z,3.47
2023-06-20T12:18:29.560Z,3.15
2023-06-20T12:21:03.406Z,3.10
2023-06-20T12:23:31.701Z,3.00
2023-06-20T12:26:01.606Z,3.00
2023-06-20T12:28:31.180Z,3.10
2023-06-20T12:31:00.538Z,3.05
2023-06-20T12:33:27.545Z,3.30
2023-06-20T12:35:54.521Z,3.17
2023-06-20T12:38:21.555Z,3.13
2023-06-20T12:40:48.553Z,2.90
2023-06-20T12:43:15.537Z,2.78
2023-06-20T12:45:47.250Z,2.92
2023-06-20T12:48:16.523Z,2.63
2023-06-20T12:50:43.648Z,2.88
2023-06-20T12:53:10.913Z,3.05
2023-06-20T12:55:38.838Z,2.80
2023-06-20T12:58:05.958Z,2.78
2023-06-20T13:00:35.022Z,2.83
2023-06-20T13:03:04.080Z,2.85
2023-06-20T13:05:31.143Z,3.10
2023-06-20T13:07:58.217Z,3.20
2023-06-20T13:10:25.483Z,3.28
2023-06-20T13:12:52.929Z,2.90
2023-06-20T13:15:21.606Z,2.33
2023-06-20T13:17:49.420Z,2.15
2023-06-20T13:20:19.796Z,2.30
2023-06-20T13:22:46.731Z,2.22
2023-06-20T13:25:13.825Z,2.20
2023-06-20T13:27:40.864Z,2.90
2023-06-20T13:30:09.074Z,2.70
2023-06-20T13:32:37.757Z,2.88
2023-06-20T13:35:08.296Z,2.63
2023-06-20T13:37:38.375Z,2.80
2023-06-20T13:40:09.163Z,2.70
2023-06-20T13:42:37.014Z,2.90
2023-06-20T13:45:05.396Z,2.83
2023-06-20T13:47:32.912Z,2.90
2023-06-20T13:49:59.983Z,2.90
2023-06-20T13:52:27.002Z,3.30
2023-06-20T13:54:55.324Z,3.28
2023-06-20T13:57:22.277Z,3.28
2023-06-20T13:59:49.343Z,3.20
2023-06-20T14:02:16.428Z,3.38
2023-06-20T14:04:44.975Z,3.13
2023-06-20T14:07:12.430Z,3.60
2023-06-20T14:09:39.444Z,3.90
2023-06-20T14:12:09.574Z,3.45
2023-06-20T14:14:36.591Z,3.50
2023-06-20T14:17:04.074Z,3.55
2023-06-20T14:19:33.423Z,3.40
2023-06-20T14:22:00.444Z,4.00
2023-06-20T14:24:28.129Z,4.55
2023-06-20T14:26:56.258Z,4.25
2023-06-20T14:29:24.655Z,4.25
2023-06-20T14:31:51.739Z,3.70
2023-06-20T14:34:18.704Z,3.92
2023-06-20T14:36:46.295Z,3.95
2023-06-20T14:39:14.428Z,4.15
2023-06-20T14:41:42.009Z,3.72
2023-06-20T14:44:09.095Z,3.75
2023-06-20T14:46:38.225Z,4.15
2023-06-20T14:49:05.277Z,3.88
2023-06-20T14:51:32.256Z,3.70
2023-06-20T14:53:59.401Z,3.80
2023-06-20T14:56:26.700Z,4.10
2023-06-20T14:58:53.707Z,3.80
2023-06-20T15:01:21.163Z,3.67
2023-06-20T15:03:49.534Z,3.67
2023-06-20T15:06:16.871Z,3.95
2023-06-20T15:08:43.894Z,3.70
2023-06-20T15:11:10.870Z,3.58
2023-06-20T15:13:37.873Z,3.45
2023-06-20T15:16:05.143Z,3.65
2023-06-20T15:18:32.579Z,4.05
2023-06-20T15:21:00.960Z,3.50
2023-06-20T15:23:28.008Z,3.67
2023-06-20T15:25:54.965Z,4.50
2023-06-20T15:28:21.915Z,4.00
2023-06-20T15:30:48.942Z,4.25
2023-06-20T15:33:16.026Z,4.18
2023-06-20T15:35:45.786Z,4.47
2023-06-20T15:38:14.293Z,4.20
2023-06-20T15:40:41.963Z,4.53
2023-06-20T15:43:09.115Z,4.43
2023-06-20T15:45:36.972Z,4.05
2023-06-20T15:48:04.332Z,4.75
2023-06-20T15:50:31.571Z,4.97
2023-06-20T15:52:58.572Z,4.70
2023-06-20T15:55:26.920Z,4.32
2023-06-20T15:57:53.912Z,4.30
2023-06-20T16:00:21.280Z,3.97
2023-06-20T16:02:48.702Z,4.68
2023-06-20T16:05:16.022Z,4.88
2023-06-20T16:07:43.121Z,4.88
2023-06-20T16:10:10.594Z,4.40
2023-06-20T16:12:39.438Z,4.68
2023-06-20T16:15:07.675Z,5.32
2023-06-20T16:17:34.906Z,5.18
2023-06-20T16:20:02.131Z,4.97
2023-06-20T16:22:29.285Z,5.63
2023-06-20T16:24:57.559Z,5.70
2023-06-20T16:27:24.581Z,5.15
2023-06-20T16:29:53.207Z,5.38
2023-06-20T16:32:20.246Z,4.90
2023-06-20T16:34:47.371Z,4.70
2023-06-20T16:37:14.331Z,4.80
2023-06-20T16:39:43.054Z,5.38
2023-06-20T16:42:10.357Z,4.88
2023-06-20T16:44:37.376Z,5.72
2023-06-20T16:47:06.690Z,4.97
2023-06-20T16:49:35.363Z,5.15
2023-06-20T16:52:02.508Z,5.55
2023-06-20T16:54:29.604Z,5.50
2023-06-20T16:56:56.933Z,5.90
2023-06-20T16:59:24.010Z,5.80
2023-06-20T17:01:50.990Z,6.57
2023-06-20T17:04:22.306Z,5.57
2023-06-20T17:06:49.860Z,5.35
2023-06-20T17:09:16.893Z,5.90
2023-06-20T17:11:44.071Z,6.22
2023-06-20T17:14:11.560Z,6.32
2023-06-20T17:16:38.668Z,6.50
2023-06-20T17:19:05.715Z,6.90
2023-06-20T17:21:34.284Z,6.55
2023-06-20T17:24:04.250Z,6.30
2023-06-20T17:26:34.501Z,6.70
2023-06-20T17:29:02.767Z,6.18
2023-06-20T17:31:29.875Z,6.30
2023-06-20T17:33:56.933Z,5.95
2023-06-20T17:36:23.878Z,6.40
2023-06-20T17:38:54.049Z,6.85
2023-06-20T17:41:21.078Z,6.68
2023-06-20T17:43:48.152Z,6.63
2023-06-20T17:46:15.207Z,6.90
2023-06-20T17:48:42.784Z,7.80
2023-06-20T17:51:10.130Z,6.95
2023-06-20T17:53:39.600Z,7.13
2023-06-20T17:56:07.944Z,7.05
2023-06-20T17:58:36.500Z,6.78
2023-06-20T18:01:03.870Z,6.32
2023-06-20T18:03:31.236Z,6.05
2023-06-20T18:05:58.305Z,5.80
2023-06-20T18:08:25.322Z,6.70
2023-06-20T18:10:53.548Z,6.55
2023-06-20T18:13:24.437Z,5.40
2023-06-20T18:15:53.880Z,6.15
2023-06-20T18:18:21.678Z,6.15
2023-06-20T18:20:48.723Z,6.10
2023-06-20T18:23:16.095Z,6.35
2023-06-20T18:25:43.137Z,6.45
2023-06-20T18:28:10.110Z,6.55
2023-06-20T18:30:39.284Z,6.70
2023-06-20T18:33:07.986Z,6.85
2023-06-20T18:35:35.047Z,6.57
2023-06-20T18:38:04.187Z,7.28
2023-06-20T18:40:31.255Z,7.07
2023-06-20T18:43:09.381Z,6.75
2023-06-20T18:45:36.491Z,6.63
2023-06-20T18:48:07.888Z,7.03
2023-06-20T18:50:35.981Z,7.15
2023-06-20T18:53:03.011Z,7.07
2023-06-20T18:55:30.066Z,7.07
2023-06-20T18:57:57.620Z,7.57
2023-06-20T19:00:25.101Z,6.75
2023-06-20T19:02:53.443Z,6.63
2023-06-20T19:05:23.083Z,7.10
2023-06-20T19:07:51.977Z,6.68
2023-06-20T19:10:18.943Z,7.35
2023-06-20T19:12:45.919Z,6.30
2023-06-20T19:15:12.923Z,7.00
2023-06-20T19:17:42.348Z,7.75
2023-06-20T19:20:10.673Z,7.60
2023-06-20T19:22:40.007Z,8.07
2023-06-20T19:25:07.523Z,7.45
2023-06-20T19:27:36.617Z,7.63
2023-06-20T19:30:04.467Z,7.20
2023-06-20T19:32:32.383Z,6.97
2023-06-20T19:34:59.465Z,7.22
2023-06-20T19:37:26.547Z,7.20
2023-06-20T19:39:54.957Z,6.97
2023-06-20T19:42:24.188Z,7.15
2023-06-20T19:44:51.294Z,7.10
2023-06-20T19:47:19.933Z,7.00
2023-06-20T19:49:46.981Z,7.57
2023-06-20T19:52:16.646Z,6.43
2023-06-20T19:54:44.392Z,6.55
2023-06-20T19:57:12.843Z,7.25
2023-06-20T19:59:40.708Z,7.10
2023-06-20T20:02:10.170Z,7.68
2023-06-20T20:04:37.470Z,7.40
2023-06-20T20:07:05.048Z,7.18
2023-06-20T20:09:32.102Z,7.30
2023-06-20T20:12:01.709Z,7.32
2023-06-20T20:14:31.921Z,7.50
2023-06-20T20:17:00.064Z,6.82
2023-06-20T20:19:29.805Z,7.53
2023-06-20T20:21:57.072Z,7.40
2023-06-20T20:24:24.083Z,7.03
2023-06-20T20:26:53.816Z,7.47
2023-06-20T20:29:21.104Z,7.70
2023-06-20T20:31:52.934Z,7.20
2023-06-20T20:34:22.265Z,7.20
2023-06-20T20:36:50.430Z,7.03
2023-06-20T20:39:17.429Z,6.90
2023-06-20T20:41:45.881Z,7.07
2023-06-20T20:44:15.680Z,7.15
2023-06-20T20:46:45.596Z,7.38
2023-06-20T20:49:13.975Z,6.75
2023-06-20T20:51:40.969Z,6.82
2023-06-20T20:54:08.072Z,7.05
2023-06-20T20:56:35.130Z,7.55
2023-06-20T20:59:05.246Z,7.05
2023-06-20T21:01:32.381Z,7.18
2023-06-20T21:03:59.480Z,6.75
2023-06-20T21:06:28.388Z,7.97
2023-06-20T21:08:55.416Z,8.07
2023-06-20T21:11:22.926Z,7.97
2023-06-20T21:13:50.614Z,8.13
2023-06-20T21:16:17.663Z,7.90
2023-06-20T21:18:44.680Z,7.65
2023-06-20T21:21:11.937Z,7.75
2023-06-20T21:23:40.326Z,7.80
2023-06-20T21:26:07.480Z,7.63
2023-06-20T21:28:34.724Z,7.63
2023-06-20T21:31:03.787Z,6.97
2023-06-20T21:33:32.716Z,7.07
2023-06-20T21:36:01.300Z,8.00
2023-06-20T21:38:28.828Z,7.20
2023-06-20T21:40:57.281Z,7.30
2023-06-20T21:43:24.585Z,7.35
2023-06-20T21:45:52.327Z,7.75
2023-06-20T21:48:19.509Z,7.75
2023-06-20T21:50:46.627Z,7.50
2023-06-20T21:53:13.684Z,7.30
2023-06-20T21:55:40.920Z,6.82
2023-06-20T21:58:09.932Z,6.95
2023-06-20T22:00:37.053Z,7.30
2023-06-20T22:03:04.810Z,7.80
2023-06-20T22:05:31.915Z,7.28
2023-06-20T22:07:59.002Z,7.30
2023-06-20T22:10:26.478Z,7.45
2023-06-20T22:12:54.302Z,7.82
2023-06-20T22:15:23.019Z,7.40
2023-06-20T22:17:50.237Z,7.07
2023-06-20T22:20:18.274Z,6.78
2023-06-20T22:22:45.364Z,6.72
2023-06-20T22:25:13.485Z,7.45
2023-06-20T22:27:40.554Z,6.53
2023-06-20T22:30:12.041Z,6.53
2023-06-20T22:32:40.623Z,6.75
2023-06-20T22:35:08.239Z,7.10
2023-06-20T22:37:35.313Z,6.97
2023-06-20T22:40:03.027Z,6.30
2023-06-20T22:42:30.149Z,7.25
2023-06-20T22:44:57.424Z,6.90
2023-06-20T22:47:24.464Z,6.85
2023-06-20T22:49:52.893Z,6.30
2023-06-20T22:52:20.832Z,6.60
2023-06-20T22:54:47.999Z,6.38
2023-06-20T22:57:15.072Z,7.05
2023-06-20T22:59:42.084Z,6.47
2023-06-20T23:02:09.269Z,6.50
2023-06-20T23:04:36.253Z,6.38
2023-06-20T23:07:04.958Z,6.07
2023-06-20T23:09:32.420Z,6.38
2023-06-20T23:11:59.979Z,5.90
2023-06-20T23:14:27.226Z,6.47
2023-06-20T23:16:54.295Z,6.30
2023-06-20T23:19:21.351Z,6.63
2023-06-20T23:21:49.155Z,6.15
2023-06-20T23:24:22.920Z,6.80
2023-06-20T23:26:50.197Z,6.20
2023-06-20T23:29:17.154Z,6.53
2023-06-20T23:31:44.278Z,6.32
2023-06-20T23:34:12.534Z,6.65
2023-06-20T23:36:43.993Z,6.20
2023-06-20T23:39:14.299Z,6.20
2023-06-20T23:41:42.773Z,6.03
2023-06-20T23:44:14.226Z,5.93
2023-06-20T23:46:41.485Z,5.60
2023-06-20T23:49:08.605Z,6.70
2023-06-20T23:51:36.591Z,6.30
2023-06-20T23:54:05.912Z,6.38
2023-06-20T23:56:35.463Z,6.00
2023-06-20T23:59:05.576Z,6.70
